createdAt,value
2018-06-20T00:01:00.247Z,988
2018-06-20T00:02:01.414Z,988
2018-06-20T00:03:02.585Z,988
2018-06-20T00:04:06.125Z,987.9
2018-06-20T00:05:07.344Z,988
2018-06-20T00:06:08.534Z,988
2018-06-20T00:07:09.674Z,988.1
2018-06-20T00:08:10.814Z,988
2018-06-20T00:09:11.939Z,988
2018-06-20T00:10:13.087Z,988
2018-06-20T00:11:14.314Z,988
2018-06-20T00:12:15.442Z,988
2018-06-20T00:13:16.571Z,988
2018-06-20T00:14:17.701Z,988
2018-06-20T00:15:18.837Z,988
2018-06-20T00:16:20.037Z,987.8
2018-06-20T00:17:21.318Z,987.9
2018-06-20T00:18:22.454Z,987.9
2018-06-20T00:19:23.580Z,987.9
2018-06-20T00:20:24.742Z,987.9
2018-06-20T00:21:25.892Z,987.9
2018-06-20T00:22:27.049Z,987.9
2018-06-20T00:23:28.243Z,987.7
2018-06-20T00:24:29.414Z,987.9
2018-06-20T00:25:30.568Z,987.8
2018-06-20T00:26:31.834Z,987.9
2018-06-20T00:27:32.960Z,987.8
2018-06-20T00:28:34.088Z,987.8
2018-06-20T00:29:35.221Z,987.8
2018-06-20T00:30:36.357Z,987.8
2018-06-20T00:31:37.558Z,987.8
2018-06-20T00:32:38.773Z,987.8
2018-06-20T00:33:39.848Z,987.8
2018-06-20T00:34:41.021Z,987.7
2018-06-20T00:35:42.141Z,987.8
2018-06-20T00:36:43.314Z,987.8
2018-06-20T00:37:44.498Z,987.8
2018-06-20T00:38:45.630Z,987.8
2018-06-20T00:39:46.823Z,987.8
2018-06-20T00:40:48.022Z,987.8
2018-06-20T00:41:49.191Z,987.7
2018-06-20T00:42:50.386Z,987.8
2018-06-20T00:43:51.501Z,987.8
2018-06-20T00:44:52.653Z,987.8
2018-06-20T00:45:53.813Z,987.8
2018-06-20T00:46:55.051Z,987.6
2018-06-20T00:47:56.184Z,987.7
2018-06-20T00:48:57.321Z,987.7
2018-06-20T00:49:58.765Z,987.7
2018-06-20T00:50:59.917Z,987.6
2018-06-20T00:52:01.154Z,987.7
2018-06-20T00:53:02.287Z,987.7
2018-06-20T00:54:03.535Z,987.7
2018-06-20T00:55:04.767Z,987.7
2018-06-20T00:56:05.910Z,987.7
2018-06-20T00:57:07.167Z,987.6
2018-06-20T00:58:08.308Z,987.6
2018-06-20T00:59:09.491Z,987.6
2018-06-20T01:00:10.638Z,987.5
2018-06-20T01:01:11.754Z,987.6
2018-06-20T01:02:13.125Z,987.6
2018-06-20T01:03:14.269Z,987.6
2018-06-20T01:04:15.412Z,987.6
2018-06-20T01:05:16.826Z,987.6
2018-06-20T01:06:17.971Z,987.6
2018-06-20T01:07:19.163Z,987.6
2018-06-20T01:08:20.284Z,987.6
2018-06-20T01:09:21.420Z,987.6
2018-06-20T01:10:22.552Z,987.6
2018-06-20T01:11:23.704Z,987.6
2018-06-20T01:12:24.868Z,987.6
2018-06-20T01:13:26.133Z,987.6
2018-06-20T01:14:27.323Z,987.5
2018-06-20T01:15:28.473Z,987.6
2018-06-20T01:16:29.594Z,987.6
2018-06-20T01:17:30.782Z,987.5
2018-06-20T01:18:31.915Z,987.5
2018-06-20T01:19:33.049Z,987.5
2018-06-20T01:20:34.193Z,987.5
2018-06-20T01:21:35.331Z,987.5
2018-06-20T01:22:36.513Z,987.5
2018-06-20T01:23:37.647Z,987.5
2018-06-20T01:24:38.803Z,987.5
2018-06-20T01:25:39.948Z,987.5
2018-06-20T01:26:41.066Z,987.6
2018-06-20T01:27:44.979Z,987.6
2018-06-20T01:28:46.108Z,987.6
2018-06-20T01:29:47.220Z,987.6
2018-06-20T01:30:48.381Z,987.6
2018-06-20T01:31:49.528Z,987.6
2018-06-20T01:32:50.734Z,987.6
2018-06-20T01:33:51.900Z,987.6
2018-06-20T01:34:53.046Z,987.6
2018-06-20T01:35:54.216Z,987.6
2018-06-20T01:36:55.415Z,987.6
2018-06-20T01:37:56.645Z,987.6
2018-06-20T01:38:57.792Z,987.6
2018-06-20T01:39:58.954Z,987.6
2018-06-20T01:41:00.116Z,987.6
2018-06-20T01:42:01.287Z,987.6
2018-06-20T01:43:02.513Z,987.6
2018-06-20T01:44:03.640Z,987.6
2018-06-20T01:45:04.803Z,987.6
2018-06-20T01:46:05.937Z,987.6
2018-06-20T01:47:07.216Z,987.6
2018-06-20T01:48:08.394Z,987.6
2018-06-20T01:49:09.537Z,987.6
2018-06-20T01:50:10.673Z,987.6
2018-06-20T01:51:11.831Z,987.6
2018-06-20T01:52:12.962Z,987.6
2018-06-20T01:53:14.148Z,987.5
2018-06-20T01:54:15.276Z,987.5
2018-06-20T01:55:16.461Z,987.5
2018-06-20T01:56:17.604Z,987.6
2018-06-20T01:57:18.793Z,987.6
2018-06-20T01:58:20.019Z,987.6
2018-06-20T01:59:21.192Z,987.5
2018-06-20T02:00:22.377Z,987.6
2018-06-20T02:01:23.527Z,987.6
2018-06-20T02:02:24.676Z,987.6
2018-06-20T02:03:25.893Z,987.6
2018-06-20T02:04:27.030Z,987.6
2018-06-20T02:05:28.154Z,987.6
2018-06-20T02:06:29.319Z,987.6
2018-06-20T02:07:30.429Z,987.6
2018-06-20T02:08:31.605Z,987.6
2018-06-20T02:09:32.768Z,987.6
2018-06-20T02:10:33.996Z,987.6
2018-06-20T02:11:35.237Z,987.6
2018-06-20T02:12:36.363Z,987.7
2018-06-20T02:13:37.524Z,987.7
2018-06-20T02:14:38.699Z,987.7
2018-06-20T02:15:40.181Z,987.6
2018-06-20T02:16:44.859Z,987.6
2018-06-20T02:17:46.029Z,987.7
2018-06-20T02:18:47.264Z,987.7
2018-06-20T02:19:48.384Z,987.7
2018-06-20T02:20:49.512Z,987.7
2018-06-20T02:21:50.657Z,987.8
2018-06-20T02:22:51.895Z,987.7
2018-06-20T02:23:53.093Z,987.8
2018-06-20T02:24:54.305Z,987.8
2018-06-20T02:25:55.746Z,987.7
2018-06-20T02:26:56.933Z,987.8
2018-06-20T02:27:58.063Z,987.8
2018-06-20T02:28:59.254Z,987.8
2018-06-20T02:30:00.414Z,987.8
2018-06-20T02:31:01.622Z,987.8
2018-06-20T02:32:02.765Z,987.8
2018-06-20T02:33:03.915Z,987.8
2018-06-20T02:34:05.116Z,987.8
2018-06-20T02:35:06.276Z,987.8
2018-06-20T02:36:07.816Z,987.8
2018-06-20T02:37:08.957Z,987.8
2018-06-20T02:38:10.105Z,987.8
2018-06-20T02:39:11.271Z,987.7
2018-06-20T02:40:12.492Z,987.9
2018-06-20T02:41:13.618Z,987.9
2018-06-20T02:42:14.745Z,987.9
2018-06-20T02:43:15.906Z,987.8
2018-06-20T02:44:17.087Z,987.9
2018-06-20T02:45:18.218Z,987.9
2018-06-20T02:46:20.697Z,988
2018-06-20T02:47:21.826Z,987.9
2018-06-20T02:48:22.951Z,988
2018-06-20T02:49:24.139Z,988
2018-06-20T02:50:25.286Z,988
2018-06-20T02:51:26.436Z,988.1
2018-06-20T02:52:27.587Z,988.1
2018-06-20T02:53:28.691Z,988.1
2018-06-20T02:54:29.884Z,988.1
2018-06-20T02:55:31.037Z,988.1
2018-06-20T02:56:32.199Z,988.1
2018-06-20T02:57:33.335Z,988.1
2018-06-20T02:58:34.462Z,988.1
2018-06-20T02:59:35.612Z,988.1
2018-06-20T03:00:36.773Z,988.1
2018-06-20T03:01:37.898Z,988
2018-06-20T03:02:39.022Z,988
2018-06-20T03:03:43.135Z,987.9
2018-06-20T03:04:44.741Z,988.1
2018-06-20T03:05:45.854Z,988
2018-06-20T03:06:49.264Z,987.9
2018-06-20T03:07:50.640Z,988
2018-06-20T03:08:51.771Z,988.1
2018-06-20T03:09:53.007Z,988
2018-06-20T03:10:54.128Z,988
2018-06-20T03:11:55.264Z,988
2018-06-20T03:12:56.395Z,988.1
2018-06-20T03:14:00.551Z,988.1
2018-06-20T03:15:01.819Z,987.9
2018-06-20T03:16:03.620Z,988
2018-06-20T03:17:04.998Z,988.1
2018-06-20T03:18:06.126Z,987.9
2018-06-20T03:19:07.273Z,988
2018-06-20T03:20:08.467Z,988.1
2018-06-20T03:21:09.916Z,987.8
2018-06-20T03:22:11.074Z,988
2018-06-20T03:23:12.228Z,988
2018-06-20T03:24:13.420Z,988
2018-06-20T03:25:14.565Z,988
2018-06-20T03:26:15.722Z,988
2018-06-20T03:27:16.894Z,988
2018-06-20T03:28:17.988Z,988
2018-06-20T03:29:19.164Z,988
2018-06-20T03:30:20.347Z,988.1
2018-06-20T03:31:21.791Z,987.8
2018-06-20T03:32:22.996Z,988
2018-06-20T03:33:24.126Z,988
2018-06-20T03:34:25.247Z,988.1
2018-06-20T03:35:26.434Z,988
2018-06-20T03:36:27.550Z,988.1
2018-06-20T03:37:28.658Z,988.1
2018-06-20T03:38:29.806Z,988.1
2018-06-20T03:39:30.955Z,988
2018-06-20T03:40:32.116Z,988
2018-06-20T03:41:33.278Z,988
2018-06-20T03:42:34.404Z,988.1
2018-06-20T03:43:35.558Z,988.2
2018-06-20T03:44:36.695Z,988.1
2018-06-20T03:45:37.902Z,988.1
2018-06-20T03:46:39.036Z,988.2
2018-06-20T03:47:40.191Z,988.2
2018-06-20T03:48:41.318Z,988.2
2018-06-20T03:49:42.494Z,988.2
2018-06-20T03:50:43.764Z,988.2
2018-06-20T03:51:44.886Z,988.2
2018-06-20T03:52:46.020Z,988.2
2018-06-20T03:53:47.175Z,988.2
2018-06-20T03:54:48.287Z,988.2
2018-06-20T03:55:49.464Z,988.3
2018-06-20T03:56:50.589Z,988.2
2018-06-20T03:57:51.712Z,988.2
2018-06-20T03:58:52.840Z,988.2
2018-06-20T03:59:53.980Z,988.2
2018-06-20T04:00:55.158Z,988.2
2018-06-20T04:01:56.293Z,988.2
2018-06-20T04:02:57.444Z,988.2
2018-06-20T04:03:58.566Z,988.3
2018-06-20T04:04:59.743Z,988.3
2018-06-20T04:06:00.936Z,988.2
2018-06-20T04:07:02.079Z,988.2
2018-06-20T04:08:03.224Z,988.2
2018-06-20T04:09:04.373Z,988.3
2018-06-20T04:10:05.517Z,988.3
2018-06-20T04:11:06.711Z,988.3
2018-06-20T04:12:10.761Z,988.3
2018-06-20T04:13:11.956Z,988.3
2018-06-20T04:14:13.149Z,988.3
2018-06-20T04:15:14.323Z,988.3
2018-06-20T04:16:15.498Z,988.3
2018-06-20T04:17:16.624Z,988.3
2018-06-20T04:18:17.799Z,988.3
2018-06-20T04:19:18.904Z,988.3
2018-06-20T04:20:20.053Z,988.2
2018-06-20T04:21:21.272Z,988.3
2018-06-20T04:22:22.491Z,988.3
2018-06-20T04:23:23.655Z,988.3
2018-06-20T04:24:24.808Z,988.3
2018-06-20T04:25:25.979Z,988.3
2018-06-20T04:26:27.416Z,988.3
2018-06-20T04:27:29.741Z,988.3
2018-06-20T04:28:30.887Z,988.3
2018-06-20T04:29:32.065Z,988.3
2018-06-20T04:30:33.242Z,988.3
2018-06-20T04:31:34.408Z,988.3
2018-06-20T04:32:35.528Z,988.3
2018-06-20T04:33:36.688Z,988.4
2018-06-20T04:34:37.841Z,988.3
2018-06-20T04:35:39.007Z,988.3
2018-06-20T04:36:40.214Z,988.3
2018-06-20T04:37:41.358Z,988.3
2018-06-20T04:38:42.487Z,988.3
2018-06-20T04:39:43.633Z,988.3
2018-06-20T04:40:44.804Z,988.3
2018-06-20T04:41:46.007Z,988.3
2018-06-20T04:42:47.159Z,988.3
2018-06-20T04:43:48.300Z,988.3
2018-06-20T04:44:49.452Z,988.3
2018-06-20T04:45:50.585Z,988.3
2018-06-20T04:46:51.792Z,988.3
2018-06-20T04:47:52.990Z,988.3
2018-06-20T04:48:54.113Z,988.3
2018-06-20T04:49:55.292Z,988.2
2018-06-20T04:50:56.438Z,988.3
2018-06-20T04:51:58.152Z,988.3
2018-06-20T04:52:59.282Z,988.2
2018-06-20T04:54:00.426Z,988.3
2018-06-20T04:55:01.563Z,988.3
2018-06-20T04:56:02.670Z,988.3
2018-06-20T04:57:03.869Z,988.3
2018-06-20T04:58:05.002Z,988.3
2018-06-20T04:59:06.176Z,988.3
2018-06-20T05:00:07.366Z,988.2
2018-06-20T05:01:08.516Z,988.2
2018-06-20T05:02:09.695Z,988.3
2018-06-20T05:03:10.860Z,988.4
2018-06-20T05:04:12.043Z,988.3
2018-06-20T05:05:13.188Z,988.3
2018-06-20T05:06:14.331Z,988.3
2018-06-20T05:07:15.933Z,988.3
2018-06-20T05:08:17.080Z,988.3
2018-06-20T05:09:18.221Z,988.3
2018-06-20T05:10:19.422Z,988.3
2018-06-20T05:11:20.574Z,988.3
2018-06-20T05:12:21.802Z,988.2
2018-06-20T05:13:23.028Z,988.3
2018-06-20T05:14:24.168Z,988.3
2018-06-20T05:15:25.307Z,988.3
2018-06-20T05:16:26.443Z,988.4
2018-06-20T05:17:27.630Z,988.3
2018-06-20T05:18:28.757Z,988.4
2018-06-20T05:19:29.947Z,988.4
2018-06-20T05:20:32.130Z,988.4
2018-06-20T05:21:33.308Z,988.4
2018-06-20T05:22:34.505Z,988.4
2018-06-20T05:23:35.626Z,988.4
2018-06-20T05:24:36.791Z,988.4
2018-06-20T05:25:37.954Z,988.3
2018-06-20T05:26:39.093Z,988.3
2018-06-20T05:27:40.300Z,988.3
2018-06-20T05:28:41.450Z,988.4
2018-06-20T05:29:42.748Z,988.3
2018-06-20T05:30:43.932Z,988.3
2018-06-20T05:31:45.080Z,988.3
2018-06-20T05:32:46.310Z,988.2
2018-06-20T05:33:47.429Z,988.1
2018-06-20T05:34:48.654Z,988.2
2018-06-20T05:35:49.804Z,988.3
2018-06-20T05:36:50.945Z,988.3
2018-06-20T05:37:52.326Z,988.3
2018-06-20T05:38:53.608Z,988.3
2018-06-20T05:39:54.804Z,988.2
2018-06-20T05:40:55.974Z,988.2
2018-06-20T05:41:57.136Z,988.2
2018-06-20T05:42:58.322Z,988.2
2018-06-20T05:43:59.487Z,988.2
2018-06-20T05:45:00.630Z,988.2
2018-06-20T05:46:01.857Z,988.2
2018-06-20T05:47:03.027Z,988.2
2018-06-20T05:48:04.253Z,988
2018-06-20T05:49:05.385Z,988.1
2018-06-20T05:50:06.573Z,988.1
2018-06-20T05:51:07.703Z,988.2
2018-06-20T05:52:09.185Z,988.3
2018-06-20T05:53:10.373Z,988.5
2018-06-20T05:54:11.533Z,988.5
2018-06-20T05:55:12.669Z,988.6
2018-06-20T05:56:13.883Z,988.8
2018-06-20T05:57:15.080Z,988.7
2018-06-20T05:58:16.371Z,988.7
2018-06-20T05:59:17.578Z,988.7
2018-06-20T06:00:18.753Z,988.7
2018-06-20T06:01:19.905Z,988.7
2018-06-20T06:02:21.058Z,988.7
2018-06-20T06:03:22.209Z,988.7
2018-06-20T06:04:23.391Z,988.7
2018-06-20T06:05:24.536Z,988.8
2018-06-20T06:06:25.682Z,988.8
2018-06-20T06:07:29.255Z,988.7
2018-06-20T06:08:30.483Z,988.8
2018-06-20T06:09:31.636Z,988.6
2018-06-20T06:10:32.784Z,988.7
2018-06-20T06:11:33.988Z,988.8
2018-06-20T06:12:35.140Z,988.8
2018-06-20T06:13:38.350Z,988.6
2018-06-20T06:14:39.498Z,988.5
2018-06-20T06:15:40.665Z,988.5
2018-06-20T06:16:41.852Z,988.5
2018-06-20T06:17:42.951Z,988.5
2018-06-20T06:18:44.229Z,988.5
2018-06-20T06:19:45.394Z,988.5
2018-06-20T06:20:46.522Z,988.2
2018-06-20T06:21:47.644Z,988.3
2018-06-20T06:22:48.784Z,988.3
2018-06-20T06:23:49.985Z,988.2
2018-06-20T06:24:51.143Z,988.2
2018-06-20T06:25:52.341Z,988.5
2018-06-20T06:26:53.591Z,988.3
2018-06-20T06:27:54.745Z,988.3
2018-06-20T06:28:55.975Z,988.1
2018-06-20T06:29:57.208Z,988.2
2018-06-20T06:30:58.364Z,988.3
2018-06-20T06:31:59.504Z,988.3
2018-06-20T06:33:00.670Z,988.3
2018-06-20T06:34:02.056Z,988.2
2018-06-20T06:35:03.252Z,988.3
2018-06-20T06:36:04.476Z,988.1
2018-06-20T06:37:05.645Z,988.4
2018-06-20T06:38:06.796Z,988.4
2018-06-20T06:39:08.532Z,988.4
2018-06-20T06:40:09.703Z,988.4
2018-06-20T06:41:10.894Z,988.2
2018-06-20T06:42:12.136Z,988.3
2018-06-20T06:43:13.291Z,988.3
2018-06-20T06:44:14.567Z,988.3
2018-06-20T06:45:15.725Z,988.3
2018-06-20T06:46:16.998Z,988.3
2018-06-20T06:47:18.169Z,988.3
2018-06-20T06:48:19.303Z,988.3
2018-06-20T06:49:20.497Z,988.3
2018-06-20T06:50:21.625Z,988.2
2018-06-20T06:51:22.763Z,988.2
2018-06-20T06:52:24.026Z,988.2
2018-06-20T06:53:25.356Z,988.2
2018-06-20T06:54:26.576Z,988.2
2018-06-20T06:55:27.785Z,988.3
2018-06-20T06:56:28.926Z,988.3
2018-06-20T06:57:30.117Z,988.3
2018-06-20T06:58:31.259Z,988.2
2018-06-20T06:59:32.484Z,988.2
2018-06-20T07:00:33.680Z,988.2
2018-06-20T07:01:34.846Z,988.2
2018-06-20T07:02:36.042Z,988.2
2018-06-20T07:03:37.169Z,988.2
2018-06-20T07:04:38.380Z,988.2
2018-06-20T07:05:39.552Z,988.2
2018-06-20T07:06:40.687Z,988.2
2018-06-20T07:07:41.932Z,988
2018-06-20T07:08:43.109Z,988
2018-06-20T07:09:44.424Z,988.1
2018-06-20T07:10:45.619Z,988.1
2018-06-20T07:11:46.761Z,988.2
2018-06-20T07:12:47.933Z,988.1
2018-06-20T07:13:49.073Z,988.2
2018-06-20T07:14:50.312Z,988.2
2018-06-20T07:15:51.491Z,988.2
2018-06-20T07:16:52.648Z,988.2
2018-06-20T07:17:53.862Z,988.1
2018-06-20T07:18:55.042Z,988.2
2018-06-20T07:19:56.297Z,988.1
2018-06-20T07:20:57.564Z,988.1
2018-06-20T07:21:58.837Z,988
2018-06-20T07:23:00.050Z,988.1
2018-06-20T07:24:01.199Z,988.1
2018-06-20T07:25:02.452Z,988.1
2018-06-20T07:26:03.703Z,988
2018-06-20T07:27:04.856Z,988.1
2018-06-20T07:28:08.035Z,988
2018-06-20T07:29:09.565Z,988.1
2018-06-20T07:31:12.281Z,988.1
2018-06-20T07:32:19.146Z,988
2018-06-20T07:33:20.275Z,988.1
2018-06-20T07:34:21.610Z,988
2018-06-20T07:35:22.755Z,988
2018-06-20T07:36:23.980Z,988
2018-06-20T07:37:25.110Z,988
2018-06-20T07:38:26.280Z,988
2018-06-20T07:39:27.430Z,988
2018-06-20T07:40:29.178Z,987.8
2018-06-20T07:41:30.356Z,988.1
2018-06-20T07:42:31.514Z,988
2018-06-20T07:43:32.700Z,988
2018-06-20T07:44:33.943Z,987.9
2018-06-20T07:45:35.163Z,988
2018-06-20T07:46:36.312Z,988
2018-06-20T07:47:37.510Z,987.9
2018-06-20T07:48:38.742Z,987.8
2018-06-20T07:49:39.884Z,987.9
2018-06-20T07:50:41.109Z,987.9
2018-06-20T07:51:42.225Z,987.9
2018-06-20T07:52:43.428Z,987.9
2018-06-20T07:53:44.580Z,987.9
2018-06-20T07:54:45.721Z,988
2018-06-20T07:55:47.013Z,988
2018-06-20T07:56:48.135Z,988
2018-06-20T07:57:49.277Z,987.9
2018-06-20T07:58:50.510Z,988
2018-06-20T07:59:51.678Z,988
2018-06-20T08:00:52.975Z,987.9
2018-06-20T08:01:54.096Z,987.9
2018-06-20T08:02:55.261Z,987.9
2018-06-20T08:03:56.432Z,987.9
2018-06-20T08:04:57.622Z,987.9
2018-06-20T08:05:58.810Z,987.9
2018-06-20T08:06:59.994Z,987.9
2018-06-20T08:08:01.150Z,987.9
2018-06-20T08:09:02.352Z,987.9
2018-06-20T08:10:03.550Z,987.9
2018-06-20T08:11:05.033Z,987.9
2018-06-20T08:12:06.257Z,987.8
2018-06-20T08:13:07.412Z,987.8
2018-06-20T08:14:08.574Z,987.8
2018-06-20T08:15:09.750Z,987.8
2018-06-20T08:16:10.989Z,987.9
2018-06-20T08:17:12.219Z,987.9
2018-06-20T08:18:13.364Z,987.8
2018-06-20T08:19:14.677Z,987.8
2018-06-20T08:20:16.361Z,987.6
2018-06-20T08:21:17.568Z,987.8
2018-06-20T08:22:18.725Z,987.9
2018-06-20T08:23:19.938Z,987.8
2018-06-20T08:24:21.088Z,987.8
2018-06-20T08:25:22.259Z,987.9
2018-06-20T08:26:26.816Z,987.8
2018-06-20T08:27:28.016Z,987.8
2018-06-20T08:28:29.143Z,987.7
2018-06-20T08:29:30.304Z,987.7
2018-06-20T08:30:31.470Z,987.7
2018-06-20T08:31:32.677Z,987.7
2018-06-20T08:32:33.892Z,987.8
2018-06-20T08:33:35.093Z,987.8
2018-06-20T08:34:36.507Z,987.7
2018-06-20T08:35:37.658Z,987.8
2018-06-20T08:36:38.818Z,987.8
2018-06-20T08:37:39.984Z,987.8
2018-06-20T08:38:41.144Z,987.8
2018-06-20T08:39:42.307Z,987.6
2018-06-20T08:40:43.526Z,987.8
2018-06-20T08:41:45.124Z,987.7
2018-06-20T08:42:46.337Z,987.5
2018-06-20T08:43:47.467Z,987.7
2018-06-20T08:44:48.643Z,987.5
2018-06-20T08:45:49.853Z,987.5
2018-06-20T08:46:51.082Z,987.7
2018-06-20T08:47:52.312Z,987.5
2018-06-20T08:48:53.536Z,987.7
2018-06-20T08:49:54.890Z,987.7
2018-06-20T08:50:56.050Z,987.6
2018-06-20T08:51:57.290Z,987.6
2018-06-20T08:53:01.370Z,987.6
2018-06-20T08:54:02.515Z,987.6
2018-06-20T08:55:04.102Z,987.6
2018-06-20T08:56:05.495Z,987.5
2018-06-20T08:57:06.837Z,987.6
2018-06-20T08:58:10.326Z,987.6
2018-06-20T08:59:11.632Z,987.7
2018-06-20T09:00:13.112Z,987.5
2018-06-20T09:01:19.655Z,987.6
2018-06-20T09:02:20.955Z,987.5
2018-06-20T09:03:22.126Z,987.7
2018-06-20T09:04:23.419Z,987.6
2018-06-20T09:05:25.508Z,987.6
2018-06-20T09:06:26.925Z,987.6
2018-06-20T09:07:28.225Z,987.6
2018-06-20T09:08:30.885Z,987.5
2018-06-20T09:09:32.017Z,987.5
2018-06-20T09:10:33.268Z,987.3
2018-06-20T09:11:34.460Z,987.5
2018-06-20T09:12:35.676Z,987.6
2018-06-20T09:13:36.853Z,987.5
2018-06-20T09:14:38.429Z,987.5
2018-06-20T09:15:41.903Z,987.6
2018-06-20T09:16:43.250Z,987.6
2018-06-20T09:17:44.543Z,987.3
2018-06-20T09:18:45.714Z,987.4
2018-06-20T09:19:47.004Z,987.5
2018-06-20T09:20:48.311Z,987.4
2018-06-20T09:21:49.469Z,987.4
2018-06-20T09:22:50.672Z,987.4
2018-06-20T09:24:00.206Z,987.4
2018-06-20T09:25:01.538Z,987.5
2018-06-20T09:26:02.746Z,987.4
2018-06-20T09:27:04.043Z,987.4
2018-06-20T09:28:05.846Z,987.4
2018-06-20T09:29:07.283Z,987.3
2018-06-20T09:30:19.289Z,987.4
2018-06-20T09:31:20.476Z,987.4
2018-06-20T09:32:22.219Z,987.3
2018-06-20T09:33:27.229Z,987.5
2018-06-20T09:34:28.500Z,987.5
2018-06-20T09:35:33.441Z,987.5
2018-06-20T09:36:34.873Z,987.4
2018-06-20T09:37:36.025Z,987.5
2018-06-20T09:38:37.443Z,987.4
2018-06-20T09:39:38.677Z,987.4
2018-06-20T09:40:41.159Z,987.3
2018-06-20T09:41:46.912Z,987.3
2018-06-20T09:42:50.661Z,987.5
2018-06-20T09:43:54.222Z,987.4
2018-06-20T09:45:01.425Z,987.4
2018-06-20T09:46:04.186Z,987.2
2018-06-20T09:47:06.223Z,987.4
2018-06-20T09:48:07.626Z,987.4
2018-06-20T09:49:08.990Z,987.3
2018-06-20T09:50:10.667Z,987.3
2018-06-20T09:51:21.490Z,987.3
2018-06-20T09:52:23.637Z,987.3
2018-06-20T09:53:28.037Z,987.3
2018-06-20T09:54:29.375Z,987.2
2018-06-20T09:55:30.619Z,987.2
2018-06-20T09:56:31.922Z,987.2
2018-06-20T09:57:33.542Z,987.1
2018-06-20T09:58:35.121Z,987.2
2018-06-20T09:59:36.479Z,987.1
2018-06-20T10:00:38.057Z,987.1
2018-06-20T10:01:39.339Z,987.1
2018-06-20T10:02:40.683Z,987.1
2018-06-20T10:03:41.914Z,987.1
2018-06-20T10:04:43.220Z,987.1
2018-06-20T10:05:44.538Z,987.1
2018-06-20T10:06:46.135Z,987.1
2018-06-20T10:07:47.333Z,986.9
2018-06-20T10:08:48.717Z,987.1
2018-06-20T10:09:50.044Z,987
2018-06-20T10:10:51.385Z,987
2018-06-20T10:11:52.664Z,987
2018-06-20T10:12:57.944Z,986.9
2018-06-20T10:13:59.528Z,986.9
2018-06-20T10:15:01.144Z,986.9
2018-06-20T10:16:02.501Z,986.9
2018-06-20T10:17:03.826Z,986.9
2018-06-20T10:18:05.324Z,986.9
2018-06-20T10:19:06.678Z,986.9
2018-06-20T10:20:08.158Z,986.7
2018-06-20T10:21:09.494Z,986.7
2018-06-20T10:22:17.258Z,986.8
2018-06-20T10:23:18.563Z,986.8
2018-06-20T10:24:19.786Z,986.7
2018-06-20T10:25:21.042Z,986.9
2018-06-20T10:26:22.288Z,986.8
2018-06-20T10:27:23.484Z,986.8
2018-06-20T10:28:24.825Z,986.7
2018-06-20T10:29:25.927Z,986.7
2018-06-20T10:30:27.285Z,986.7
2018-06-20T10:31:29.450Z,986.5
2018-06-20T10:32:30.623Z,986.7
2018-06-20T10:33:31.908Z,986.7
2018-06-20T10:34:33.103Z,986.8
2018-06-20T10:35:34.370Z,986.7
2018-06-20T10:36:35.726Z,986.7
2018-06-20T10:37:36.889Z,986.7
2018-06-20T10:38:38.051Z,986.6
2018-06-20T10:39:39.257Z,986.6
2018-06-20T10:40:40.501Z,986.6
2018-06-20T10:41:41.791Z,986.6
2018-06-20T10:42:42.977Z,986.6
2018-06-20T10:43:44.180Z,986.4
2018-06-20T10:44:45.473Z,986.5
2018-06-20T10:45:46.707Z,986.5
2018-06-20T10:46:48.167Z,986.5
2018-06-20T10:47:49.327Z,986.4
2018-06-20T10:48:50.496Z,986.5
2018-06-20T10:49:51.695Z,986.5
2018-06-20T10:50:52.973Z,986.5
2018-06-20T10:51:55.290Z,986.5
2018-06-20T10:52:56.458Z,986.4
2018-06-20T10:53:57.629Z,986.5
2018-06-20T10:54:58.834Z,986.5
2018-06-20T10:56:00.086Z,986.5
2018-06-20T10:57:01.339Z,986.5
2018-06-20T10:58:02.521Z,986.3
2018-06-20T10:59:03.678Z,986.4
2018-06-20T11:00:04.983Z,986.4
2018-06-20T11:01:06.254Z,986.4
2018-06-20T11:02:14.094Z,986.4
2018-06-20T11:03:15.382Z,986.4
2018-06-20T11:04:16.584Z,986.3
2018-06-20T11:05:17.852Z,986.3
2018-06-20T11:06:19.106Z,986.1
2018-06-20T11:07:24.282Z,986.1
2018-06-20T11:08:25.583Z,986.1
2018-06-20T11:09:26.815Z,986
2018-06-20T11:10:28.036Z,986.1
2018-06-20T11:11:29.278Z,986.2
2018-06-20T11:12:36.990Z,986.1
2018-06-20T11:13:38.282Z,986.1
2018-06-20T11:14:47.610Z,986.2
2018-06-20T11:15:57.219Z,986.2
2018-06-20T11:16:58.465Z,986.2
2018-06-20T11:18:00.547Z,986.2
2018-06-20T11:19:01.749Z,986.1
2018-06-20T11:20:07.896Z,986.1
2018-06-20T11:21:09.088Z,986.2
2018-06-20T11:22:10.320Z,986.1
2018-06-20T11:23:11.572Z,986.1
2018-06-20T11:24:12.729Z,986.1
2018-06-20T11:25:13.914Z,986
2018-06-20T11:26:15.096Z,985.9
2018-06-20T11:27:16.334Z,986
2018-06-20T11:28:17.486Z,985.9
2018-06-20T11:29:18.763Z,986
2018-06-20T11:30:19.966Z,985.9
2018-06-20T11:31:21.169Z,986
2018-06-20T11:32:22.405Z,985.9
2018-06-20T11:33:23.604Z,985.9
2018-06-20T11:34:24.784Z,985.9
2018-06-20T11:35:26.138Z,985.9
2018-06-20T11:36:27.373Z,985.9
2018-06-20T11:37:28.706Z,985.8
2018-06-20T11:38:29.952Z,985.8
2018-06-20T11:39:31.155Z,985.7
2018-06-20T11:40:32.288Z,985.8
2018-06-20T11:41:33.640Z,985.7
2018-06-20T11:42:34.989Z,985.7
2018-06-20T11:43:36.299Z,985.6
2018-06-20T11:44:37.486Z,985.6
2018-06-20T11:45:38.757Z,985.7
2018-06-20T11:46:39.982Z,985.7
2018-06-20T11:47:41.325Z,985.6
2018-06-20T11:48:42.589Z,985.7
2018-06-20T11:49:43.890Z,985.7
2018-06-20T11:50:45.162Z,985.7
2018-06-20T11:51:46.369Z,985.6
2018-06-20T11:52:47.586Z,985.7
2018-06-20T11:53:48.863Z,985.6
2018-06-20T11:54:50.114Z,985.6
2018-06-20T11:55:51.375Z,985.6
2018-06-20T11:56:52.592Z,985.5
2018-06-20T11:57:53.875Z,985.5
2018-06-20T11:58:55.217Z,985.5
2018-06-20T11:59:56.613Z,985.5
2018-06-20T12:00:57.965Z,985.4
2018-06-20T12:01:59.210Z,985.4
2018-06-20T12:03:00.524Z,985.5
2018-06-20T12:04:02.826Z,985.4
2018-06-20T12:05:04.021Z,985.5
2018-06-20T12:06:05.409Z,985.4
2018-06-20T12:07:06.697Z,985.5
2018-06-20T12:08:11.413Z,985.4
2018-06-20T12:09:12.657Z,985.4
2018-06-20T12:10:13.867Z,985.4
2018-06-20T12:11:15.238Z,985.4
2018-06-20T12:12:16.498Z,985.4
2018-06-20T12:13:17.806Z,985.3
2018-06-20T12:14:19.080Z,985.4
2018-06-20T12:15:20.370Z,985.3
2018-06-20T12:16:21.845Z,985.2
2018-06-20T12:17:23.083Z,985.2
2018-06-20T12:18:24.441Z,985.2
2018-06-20T12:19:25.900Z,985.2
2018-06-20T12:20:28.248Z,985.2
2018-06-20T12:21:29.803Z,985.2
2018-06-20T12:22:33.579Z,985.1
2018-06-20T12:23:34.922Z,985.1
2018-06-20T12:24:36.176Z,985.2
2018-06-20T12:25:37.373Z,985.1
2018-06-20T12:26:38.571Z,985.1
2018-06-20T12:27:39.749Z,985.1
2018-06-20T12:28:41.001Z,984.9
2018-06-20T12:29:42.212Z,985
2018-06-20T12:30:43.412Z,985
2018-06-20T12:31:44.587Z,985
2018-06-20T12:32:47.939Z,985
2018-06-20T12:33:49.226Z,985
2018-06-20T12:34:50.433Z,985.1
2018-06-20T12:35:51.618Z,985.1
2018-06-20T12:36:52.764Z,985.1
2018-06-20T12:37:54.021Z,985
2018-06-20T12:38:58.424Z,985.1
2018-06-20T12:39:59.609Z,985.1
2018-06-20T12:41:00.772Z,985.1
2018-06-20T12:42:01.954Z,985
2018-06-20T12:43:03.231Z,985.1
2018-06-20T12:44:04.511Z,985.1
2018-06-20T12:45:05.785Z,985
2018-06-20T12:46:08.302Z,985
2018-06-20T12:47:09.548Z,985
2018-06-20T12:48:10.941Z,985
2018-06-20T12:49:12.302Z,984.9
2018-06-20T12:50:13.486Z,984.9
2018-06-20T12:51:14.735Z,984.8
2018-06-20T12:52:16.013Z,984.8
2018-06-20T12:53:17.237Z,984.9
2018-06-20T12:54:18.461Z,984.9
2018-06-20T12:55:19.659Z,984.9
2018-06-20T12:56:20.837Z,984.8
2018-06-20T12:57:22.106Z,984.9
2018-06-20T12:58:23.450Z,984.8
2018-06-20T12:59:24.678Z,984.7
2018-06-20T13:00:25.947Z,984.8
2018-06-20T13:01:27.116Z,984.5
2018-06-20T13:02:28.272Z,984.8
2018-06-20T13:03:29.460Z,984.8
2018-06-20T13:04:30.940Z,984.8
2018-06-20T13:05:32.125Z,984.8
2018-06-20T13:06:33.314Z,984.8
2018-06-20T13:07:39.238Z,984.8
2018-06-20T13:08:46.727Z,984.8
2018-06-20T13:09:47.912Z,984.8
2018-06-20T13:10:49.052Z,984.7
2018-06-20T13:11:50.234Z,984.8
2018-06-20T13:12:51.396Z,984.7
2018-06-20T13:13:52.572Z,984.8
2018-06-20T13:14:53.785Z,984.7
2018-06-20T13:15:55.022Z,984.8
2018-06-20T13:16:56.263Z,984.7
2018-06-20T13:17:57.421Z,984.7